Time;durP1;ratioP1;P1;durP2;ratioP2;P2;SDS_P1;SDS_P2;PMS_P1;PMS_P2;Temp;Humidity;BMP_temperature;BMP_pressure;BME280_temperature;BME280_humidity;BME280_pressure;Samples;Min_cycle;Max_cycle;Signal;HPM_P1;HPM_P2
2022/12/10 00:01:08;;;;;;;2.65;1.20;;;24.90;47.30;;;;;;5014107;28;20220;-39
2022/12/10 00:03:39;;;;;;;2.20;1.25;;;25.00;47.40;;;;;;5014229;28;20204;-43
2022/12/10 00:06:15;;;;;;;1.60;1.20;;;25.00;47.40;;;;;;5013857;28;20212;-39
2022/12/10 00:08:48;;;;;;;1.50;1.00;;;25.10;47.40;;;;;;5013811;28;20204;-44
2022/12/10 00:11:19;;;;;;;3.03;1.10;;;25.10;47.40;;;;;;5013637;28;20202;-40
2022/12/10 00:13:52;;;;;;;1.83;1.05;;;25.10;47.20;;;;;;5013601;28;20279;-43
2022/12/10 00:16:24;;;;;;;2.05;1.13;;;25.10;47.10;;;;;;5012897;28;20239;-39
2022/12/10 00:18:55;;;;;;;1.88;1.20;;;25.20;47.10;;;;;;5013373;28;20201;-40
2022/12/10 00:21:26;;;;;;;1.75;1.13;;;25.30;47.10;;;;;;5013729;28;20207;-39
2022/12/10 00:24:00;;;;;;;1.20;0.73;;;25.30;47.00;;;;;;5013668;28;20660;-39
2022/12/10 00:26:32;;;;;;;1.80;1.10;;;25.30;46.90;;;;;;5013915;28;20566;-40
2022/12/10 00:29:04;;;;;;;2.85;1.08;;;25.30;47.00;;;;;;5013733;28;20199;-40
2022/12/10 00:31:38;;;;;;;2.55;1.00;;;25.40;47.10;;;;;;5013351;28;20209;-41
2022/12/10 00:34:10;;;;;;;2.50;1.20;;;25.40;47.10;;;;;;5013555;28;20201;-39
2022/12/10 00:36:44;;;;;;;1.85;0.95;;;25.40;47.10;;;;;;5013479;28;20244;-38
2022/12/10 00:39:18;;;;;;;2.58;1.00;;;25.50;47.20;;;;;;5013365;28;20263;-38
2022/12/10 00:41:49;;;;;;;1.40;0.82;;;25.50;47.10;;;;;;5012996;28;20204;-40
2022/12/10 00:44:20;;;;;;;1.95;0.98;;;25.60;47.30;;;;;;5012775;28;20558;-38
2022/12/10 00:46:50;;;;;;;1.77;0.80;;;25.60;47.20;;;;;;5012706;28;20231;-39
2022/12/10 00:49:22;;;;;;;2.70;1.17;;;25.60;47.40;;;;;;5011501;28;20203;-38
2022/12/10 00:51:53;;;;;;;1.58;1.10;;;25.70;47.30;;;;;;5012727;28;20201;-38
2022/12/10 00:54:26;;;;;;;1.30;0.88;;;25.70;47.30;;;;;;5012902;28;20560;-41
2022/12/10 00:56:56;;;;;;;3.58;1.02;;;25.70;47.10;;;;;;5013198;28;20589;-38
2022/12/10 00:59:28;;;;;;;4.25;1.50;;;25.70;47.10;;;;;;5013236;28;20200;-41
2022/12/10 01:01:58;;;;;;;2.10;0.88;;;25.80;47.10;;;;;;5012698;28;20204;-39
2022/12/10 01:04:29;;;;;;;2.92;1.05;;;25.80;47.00;;;;;;5012951;28;20197;-38
2022/12/10 01:07:00;;;;;;;2.05;1.27;;;25.90;47.00;;;;;;5012867;28;20211;-38
2022/12/10 01:09:34;;;;;;;2.15;1.27;;;25.90;47.00;;;;;;5011542;28;21430;-39
2022/12/10 01:12:06;;;;;;;2.95;1.10;;;26.00;47.00;;;;;;5012651;28;20208;-38
2022/12/10 01:14:37;;;;;;;2.13;1.23;;;26.00;47.00;;;;;;5014772;28;20201;-42
2022/12/10 01:17:08;;;;;;;3.20;1.30;;;26.00;47.00;;;;;;5012415;28;20221;-39
2022/12/10 01:19:39;;;;;;;2.00;1.20;;;26.10;47.60;;;;;;5012370;28;20227;-39
2022/12/10 01:22:10;;;;;;;2.85;1.05;;;26.10;46.90;;;;;;5012295;28;20212;-39
2022/12/10 01:24:43;;;;;;;3.40;1.08;;;26.10;47.00;;;;;;5012365;28;20193;-39
2022/12/10 01:27:13;;;;;;;3.95;1.05;;;26.20;47.10;;;;;;5012899;28;20205;-42
2022/12/10 01:29:44;;;;;;;2.05;0.85;;;26.20;47.10;;;;;;5012152;28;20207;-38
2022/12/10 01:32:15;;;;;;;3.08;1.50;;;26.20;47.10;;;;;;5011912;28;20275;-38
2022/12/10 01:34:46;;;;;;;2.80;1.25;;;26.30;47.10;;;;;;5011805;28;20192;-39
2022/12/10 01:37:16;;;;;;;2.25;1.15;;;26.30;47.10;;;;;;5011802;28;20197;-40
2022/12/10 01:39:49;;;;;;;3.00;1.10;;;26.30;46.90;;;;;;5012031;28;20422;-39
2022/12/10 01:42:20;;;;;;;2.25;0.88;;;26.40;46.90;;;;;;5012109;28;20255;-46
2022/12/10 01:45:13;;;;;;;3.53;1.25;;;26.40;46.80;;;;;;5012007;28;20200;-39
2022/12/10 01:47:44;;;;;;;2.33;1.00;;;26.50;46.80;;;;;;5012018;28;20205;-37
2022/12/10 01:50:15;;;;;;;3.03;1.00;;;26.50;46.80;;;;;;5014310;28;20578;-38
2022/12/10 01:52:46;;;;;;;2.45;1.13;;;26.50;46.80;;;;;;5011615;28;20201;-41
2022/12/10 01:55:47;;;;;;;2.90;1.13;;;26.60;46.70;;;;;;5011916;28;20858;-37
2022/12/10 01:58:20;;;;;;;2.20;1.10;;;26.60;46.30;;;;;;5011716;28;20227;-40
2022/12/10 02:01:06;;;;;;;3.58;0.88;;;26.60;46.20;;;;;;5012063;28;20205;-40
2022/12/10 02:03:45;;;;;;;3.30;0.80;;;26.60;46.50;;;;;;5011344;28;20199;-40
2022/12/10 02:06:34;;;;;;;2.75;0.98;;;26.70;46.60;;;;;;4992172;28;20244;-39
2022/12/10 02:09:13;;;;;;;3.08;0.90;;;26.70;46.50;;;;;;4992039;28;20197;-40
2022/12/10 02:11:51;;;;;;;1.92;0.90;;;26.70;46.40;;;;;;4992100;28;20652;-39
2022/12/10 02:14:29;;;;;;;3.80;1.00;;;26.70;46.10;;;;;;4991934;28;20201;-39
2022/12/10 02:17:05;;;;;;;1.77;0.80;;;26.80;45.80;;;;;;4991501;28;20233;-41
2022/12/10 02:19:57;;;;;;;1.85;0.68;;;26.80;45.70;;;;;;4991651;28;20209;-39
2022/12/10 02:22:32;;;;;;;1.88;0.77;;;26.80;45.20;;;;;;4991603;28;20661;-39
2022/12/10 02:25:04;;;;;;;3.13;0.98;;;26.80;45.40;;;;;;4991639;28;20239;-39
2022/12/10 02:27:45;;;;;;;2.80;1.05;;;26.90;45.40;;;;;;4992109;28;20212;-42
2022/12/10 02:30:18;;;;;;;2.75;0.80;;;26.90;45.30;;;;;;4996790;28;20900;-39
2022/12/10 02:32:51;;;;;;;3.17;1.08;;;26.90;44.90;;;;;;5011167;28;20661;-40
2022/12/10 02:35:27;;;;;;;2.00;0.82;;;26.90;45.00;;;;;;5011086;28;20212;-39
2022/12/10 02:38:03;;;;;;;2.33;0.98;;;26.90;45.00;;;;;;5011037;28;20196;-39
2022/12/10 02:40:38;;;;;;;1.02;0.70;;;27.00;44.80;;;;;;5011151;28;20193;-41
2022/12/10 02:43:11;;;;;;;1.95;0.70;;;27.00;45.20;;;;;;5010371;28;20199;-40
2022/12/10 02:45:45;;;;;;;1.08;0.70;;;27.00;45.10;;;;;;5011261;28;20308;-39
2022/12/10 02:48:16;;;;;;;2.75;0.80;;;27.00;44.90;;;;;;5011289;28;20200;-43
2022/12/10 02:50:47;;;;;;;2.17;0.75;;;27.00;44.50;;;;;;5011138;28;20203;-39
2022/12/10 02:53:18;;;;;;;1.38;0.82;;;27.10;44.40;;;;;;5011231;28;20208;-40
2022/12/10 02:56:03;;;;;;;2.08;1.00;;;27.10;44.10;;;;;;5011142;28;20225;-38
2022/12/10 02:58:43;;;;;;;1.02;0.70;;;27.10;43.80;;;;;;5011340;28;20231;-39
2022/12/10 03:01:27;;;;;;;1.48;0.80;;;27.20;43.80;;;;;;5010756;28;20200;-41
2022/12/10 03:04:02;;;;;;;0.93;0.70;;;27.20;44.00;;;;;;5011078;28;20207;-39
2022/12/10 03:06:39;;;;;;;1.67;0.80;;;27.20;44.10;;;;;;5010696;28;20267;-39
2022/12/10 03:09:14;;;;;;;2.13;0.52;;;27.20;44.10;;;;;;5010411;28;20230;-42
2022/12/10 03:11:47;;;;;;;1.20;0.70;;;27.30;44.10;;;;;;5013161;28;20192;-39
2022/12/10 03:14:24;;;;;;;2.08;1.02;;;27.30;44.10;;;;;;5010621;28;20200;-39
2022/12/10 03:16:59;;;;;;;2.25;0.68;;;27.30;44.00;;;;;;5010725;28;20228;-39
2022/12/10 03:19:35;;;;;;;1.08;0.80;;;27.40;44.00;;;;;;5010869;28;20196;-43
2022/12/10 03:22:08;;;;;;;1.63;0.77;;;27.40;43.70;;;;;;5010459;28;20192;-39
2022/12/10 03:24:39;;;;;;;2.28;0.75;;;27.40;43.50;;;;;;5010288;28;20211;-39
2022/12/10 03:27:12;;;;;;;1.65;0.85;;;27.50;43.40;;;;;;5011091;28;20208;-39
2022/12/10 03:29:48;;;;;;;2.35;0.73;;;27.50;43.30;;;;;;5010884;28;20228;-43
2022/12/10 03:32:23;;;;;;;3.00;0.70;;;27.50;43.10;;;;;;5010470;28;20229;-39
2022/12/10 03:34:56;;;;;;;1.63;0.70;;;27.50;42.80;;;;;;5014133;28;20216;-39
2022/12/10 03:37:29;;;;;;;1.05;0.60;;;27.50;42.60;;;;;;5014192;28;20228;-40
2022/12/10 03:40:00;;;;;;;1.02;0.70;;;27.60;42.60;;;;;;5013849;28;20200;-40
2022/12/10 03:42:31;;;;;;;0.70;0.60;;;27.60;42.60;;;;;;5014297;28;20196;-53
2022/12/10 03:45:02;;;;;;;4.80;0.98;;;27.60;42.50;;;;;;5013845;28;20681;-40
2022/12/10 03:47:35;;;;;;;3.38;0.80;;;27.60;40.90;;;;;;5013720;28;20197;-40
2022/12/10 03:50:07;;;;;;;1.42;0.80;;;27.60;41.10;;;;;;5014070;28;20201;-39
2022/12/10 03:52:38;;;;;;;1.55;0.63;;;27.60;41.40;;;;;;5014151;28;20201;-39
2022/12/10 03:55:09;;;;;;;2.33;0.65;;;27.60;41.40;;;;;;5016820;28;20308;-39
2022/12/10 03:57:40;;;;;;;1.63;0.70;;;27.60;41.70;;;;;;5012767;28;20753;-39
2022/12/10 04:00:12;;;;;;;1.30;0.80;;;27.60;41.70;;;;;;5012558;28;20193;-39
2022/12/10 04:02:45;;;;;;;1.92;0.60;;;27.70;41.40;;;;;;5012868;28;20656;-39
2022/12/10 04:05:16;;;;;;;1.77;0.80;;;27.70;41.10;;;;;;5012722;28;20209;-39
2022/12/10 04:07:46;;;;;;;1.17;0.70;;;27.70;40.90;;;;;;5010628;28;20203;-39
2022/12/10 04:10:17;;;;;;;2.83;0.77;;;27.70;40.70;;;;;;5012775;28;20189;-38
2022/12/10 04:16:26;;;;;;;1.63;0.68;;;27.80;40.70;;;;;;5011780;28;20196;-39
2022/12/10 04:18:30;;;;;;;1.05;0.60;;;27.80;40.70;;;;;;5010403;28;20204;-41
2022/12/10 04:29:21;;;;;;;1.70;0.52;;;27.90;41.30;;;;;;5013275;28;20980;-38
2022/12/10 04:31:52;;;;;;;1.10;0.70;;;27.90;40.80;;;;;;5012837;28;20201;-40
2022/12/10 04:34:25;;;;;;;1.17;0.60;;;27.80;40.30;;;;;;5013008;28;20219;-41
2022/12/10 04:36:56;;;;;;;1.17;0.70;;;27.80;40.80;;;;;;5012941;28;20237;-44
2022/12/10 04:39:27;;;;;;;3.50;0.80;;;27.80;41.10;;;;;;5012706;28;20783;-40
2022/12/10 04:41:58;;;;;;;1.80;0.70;;;27.90;41.30;;;;;;5012760;28;20196;-39
2022/12/10 04:44:29;;;;;;;1.05;0.60;;;27.80;41.20;;;;;;5012432;28;20204;-38
2022/12/10 04:46:59;;;;;;;1.73;0.60;;;27.90;41.40;;;;;;5010907;28;20197;-39
2022/12/10 04:49:32;;;;;;;1.23;0.45;;;27.90;41.50;;;;;;5012905;28;20204;-40
2022/12/10 04:52:03;;;;;;;1.75;0.50;;;27.90;41.20;;;;;;5012412;28;20571;-38
2022/12/10 04:54:34;;;;;;;2.08;0.60;;;27.90;41.30;;;;;;5012352;28;20200;-39
2022/12/10 04:57:05;;;;;;;3.08;0.60;;;27.90;41.00;;;;;;5012657;28;20224;-40
2022/12/10 04:59:35;;;;;;;1.48;0.70;;;27.90;40.30;;;;;;5012457;28;20208;-39
2022/12/10 05:02:07;;;;;;;1.17;0.50;;;27.90;40.00;;;;;;4993230;28;20201;-40
2022/12/10 05:04:39;;;;;;;2.80;0.60;;;27.90;39.70;;;;;;4993008;28;20212;-44
2022/12/10 05:07:10;;;;;;;1.50;0.70;;;27.80;39.50;;;;;;4993114;28;20201;-40
2022/12/10 05:09:42;;;;;;;1.40;0.70;;;27.80;38.90;;;;;;4993013;28;20564;-38
2022/12/10 05:12:13;;;;;;;0.85;0.55;;;27.80;38.90;;;;;;4992930;28;20201;-39
2022/12/10 05:14:44;;;;;;;1.10;0.60;;;27.80;39.50;;;;;;4993044;28;20197;-40
2022/12/10 05:17:15;;;;;;;1.33;0.70;;;27.80;39.70;;;;;;5013787;28;20700;-38
2022/12/10 05:19:47;;;;;;;1.33;0.77;;;27.80;39.80;;;;;;5012627;28;20212;-39
2022/12/10 05:25:05;;;;;;;1.15;0.68;;;27.80;40.40;;;;;;5012565;28;20714;-41
2022/12/10 05:27:36;;;;;;;2.85;0.57;;;27.80;40.30;;;;;;5012704;28;20201;-39
2022/12/10 05:30:07;;;;;;;3.97;0.93;;;27.80;40.40;;;;;;5012064;28;20213;-38
2022/12/10 05:32:38;;;;;;;1.58;0.52;;;27.80;40.20;;;;;;5012227;28;20207;-41
2022/12/10 05:35:11;;;;;;;1.45;0.60;;;27.80;39.90;;;;;;5011660;28;20216;-38
2022/12/10 05:37:42;;;;;;;1.23;0.57;;;27.80;39.20;;;;;;5011563;28;20228;-38
2022/12/10 05:40:14;;;;;;;4.72;1.00;;;27.80;39.10;;;;;;5011580;28;20223;-39
2022/12/10 05:42:45;;;;;;;1.58;0.50;;;27.70;38.60;;;;;;5012151;28;20683;-39
2022/12/10 05:45:15;;;;;;;1.80;0.65;;;27.70;38.40;;;;;;5011861;28;20221;-40
2022/12/10 05:47:46;;;;;;;2.30;0.90;;;27.70;38.10;;;;;;5011644;28;20220;-41
2022/12/10 05:50:19;;;;;;;3.00;0.88;;;27.70;37.90;;;;;;5014073;28;20189;-39
2022/12/10 05:52:49;;;;;;;0.93;0.60;;;27.70;38.20;;;;;;5011981;28;20204;-42
2022/12/10 05:55:20;;;;;;;0.98;0.50;;;27.70;38.60;;;;;;5011250;28;20221;-39
2022/12/10 05:57:51;;;;;;;1.40;0.63;;;27.70;38.90;;;;;;5011577;28;20241;-38
2022/12/10 06:00:23;;;;;;;2.78;0.60;;;27.70;38.70;;;;;;5011584;28;20204;-38
2022/12/10 06:02:54;;;;;;;2.53;0.77;;;27.70;38.70;;;;;;5010850;28;21796;-40
2022/12/10 06:05:26;;;;;;;1.50;0.60;;;27.70;38.60;;;;;;5011457;28;20291;-42
2022/12/10 06:07:57;;;;;;;1.00;0.60;;;27.70;38.70;;;;;;5011798;28;20219;-40
2022/12/10 06:10:28;;;;;;;1.40;0.63;;;27.70;38.80;;;;;;5011741;28;20197;-41
2022/12/10 06:12:58;;;;;;;1.73;0.60;;;27.70;38.70;;;;;;5011734;28;20200;-39
2022/12/10 06:15:29;;;;;;;1.33;0.57;;;27.70;38.50;;;;;;5011662;28;20236;-39
2022/12/10 06:18:00;;;;;;;3.13;0.80;;;27.70;38.50;;;;;;5011668;28;20575;-38
2022/12/10 06:20:33;;;;;;;1.85;0.85;;;27.70;38.10;;;;;;5011676;28;20197;-39
2022/12/10 06:23:04;;;;;;;2.60;0.68;;;27.70;38.20;;;;;;5011527;28;20197;-38
2022/12/10 06:25:35;;;;;;;1.35;0.60;;;27.70;38.10;;;;;;5011360;28;20225;-38
2022/12/10 06:28:06;;;;;;;1.05;0.63;;;27.70;37.80;;;;;;5011550;28;20244;-38
2022/12/10 06:30:37;;;;;;;1.00;0.60;;;27.70;37.90;;;;;;5010924;28;20583;-39
2022/12/10 06:33:08;;;;;;;2.28;0.77;;;27.70;37.90;;;;;;5010912;28;20563;-38
2022/12/10 06:35:41;;;;;;;1.35;0.57;;;27.70;38.20;;;;;;5010777;28;20799;-38
2022/12/10 06:38:11;;;;;;;3.15;0.90;;;27.70;38.30;;;;;;5011058;28;20225;-38
2022/12/10 06:40:43;;;;;;;2.08;0.63;;;27.70;38.30;;;;;;5011115;28;20676;-38
2022/12/10 06:43:14;;;;;;;1.30;0.50;;;27.70;38.20;;;;;;5010833;28;20193;-40
2022/12/10 06:45:45;;;;;;;1.70;0.70;;;27.70;38.20;;;;;;5010798;28;20255;-38
2022/12/10 06:48:16;;;;;;;1.25;0.70;;;27.70;38.10;;;;;;5011025;28;20200;-39
2022/12/10 06:50:48;;;;;;;1.27;0.70;;;27.80;38.30;;;;;;5010782;28;20203;-38
2022/12/10 06:53:19;;;;;;;3.13;0.90;;;27.80;38.20;;;;;;5010581;28;20204;-38
2022/12/10 06:55:50;;;;;;;2.65;0.88;;;27.80;37.90;;;;;;5010583;28;20224;-39
2022/12/10 06:58:20;;;;;;;2.72;1.00;;;27.80;37.80;;;;;;5010523;28;20222;-38
2022/12/10 07:00:51;;;;;;;1.75;0.80;;;27.80;37.80;;;;;;5010937;28;20696;-38
2022/12/10 07:03:22;;;;;;;3.20;0.95;;;27.80;37.80;;;;;;5010571;28;20196;-39
2022/12/10 07:05:54;;;;;;;3.00;0.93;;;27.80;38.50;;;;;;5010489;28;20799;-39
2022/12/10 07:08:25;;;;;;;2.70;1.05;;;27.80;37.90;;;;;;5012063;28;20197;-38
2022/12/10 07:10:56;;;;;;;2.58;0.85;;;27.80;38.70;;;;;;5019033;28;20214;-41
2022/12/10 07:13:27;;;;;;;2.35;0.93;;;27.80;38.00;;;;;;5034011;28;20199;-38
2022/12/10 07:15:58;;;;;;;3.25;1.15;;;27.80;38.20;;;;;;5015011;28;20221;-38
2022/12/10 07:18:29;;;;;;;1.17;0.75;;;27.80;38.40;;;;;;5013892;28;20224;-38
2022/12/10 07:21:02;;;;;;;3.13;1.20;;;27.80;38.50;;;;;;5014389;28;20201;-38
2022/12/10 07:23:32;;;;;;;2.03;0.85;;;27.80;38.30;;;;;;5014329;28;20211;-38
2022/12/10 07:26:03;;;;;;;3.28;1.00;;;27.80;38.50;;;;;;5014707;28;20718;-38
2022/12/10 07:28:34;;;;;;;1.77;0.90;;;27.70;38.40;;;;;;5014843;28;20207;-39
2022/12/10 07:31:05;;;;;;;2.92;0.98;;;27.70;38.40;;;;;;5013989;28;20201;-38
2022/12/10 07:33:36;;;;;;;1.52;0.88;;;27.70;38.30;;;;;;5014039;28;20197;-39
2022/12/10 07:36:11;;;;;;;3.50;0.88;;;27.70;38.10;;;;;;5014400;28;20223;-38
2022/12/10 07:38:42;;;;;;;4.20;1.13;;;27.70;38.10;;;;;;5014033;28;20242;-39
2022/12/10 07:41:14;;;;;;;2.17;0.68;;;27.70;38.10;;;;;;5013884;28;20207;-39
2022/12/10 07:43:47;;;;;;;1.70;0.88;;;27.60;38.10;;;;;;5013776;28;20205;-38
2022/12/10 07:46:21;;;;;;;2.17;0.88;;;27.60;38.00;;;;;;5014277;28;20228;-41
2022/12/10 07:48:52;;;;;;;2.10;0.70;;;27.60;38.10;;;;;;5016360;28;20559;-40
2022/12/10 07:51:25;;;;;;;1.42;0.73;;;27.50;38.10;;;;;;5013421;28;20197;-39
2022/12/10 07:53:57;;;;;;;1.80;0.60;;;27.50;38.20;;;;;;5013771;28;20567;-38
2022/12/10 07:56:27;;;;;;;2.67;0.85;;;27.50;38.30;;;;;;5012112;28;20224;-39
2022/12/10 07:58:58;;;;;;;1.50;0.70;;;27.50;38.40;;;;;;5012504;28;20221;-40
2022/12/10 08:01:29;;;;;;;1.27;0.70;;;27.40;38.40;;;;;;5013344;28;20236;-39
2022/12/10 08:04:00;;;;;;;1.25;0.80;;;27.40;38.40;;;;;;5013464;28;20201;-38
2022/12/10 08:06:33;;;;;;;2.80;0.95;;;27.40;38.50;;;;;;5014099;28;20228;-39
2022/12/10 08:09:04;;;;;;;1.38;0.90;;;27.40;38.50;;;;;;5013727;28;20578;-40
2022/12/10 08:11:34;;;;;;;2.15;0.82;;;27.40;38.50;;;;;;5013472;28;20207;-39
2022/12/10 08:14:05;;;;;;;2.28;0.68;;;27.30;38.40;;;;;;5013098;28;20203;-39
2022/12/10 08:16:36;;;;;;;1.17;0.65;;;27.30;38.40;;;;;;5013758;28;20594;-40
2022/12/10 08:19:07;;;;;;;1.63;0.80;;;27.30;38.50;;;;;;5013100;28;20229;-38
2022/12/10 08:21:39;;;;;;;2.10;0.93;;;27.30;38.50;;;;;;5013564;28;20197;-41
2022/12/10 08:24:10;;;;;;;1.17;0.65;;;27.20;38.50;;;;;;5013459;28;20204;-39
2022/12/10 08:26:41;;;;;;;1.85;0.90;;;27.20;38.50;;;;;;5013690;28;20224;-38
2022/12/10 08:29:12;;;;;;;0.85;0.70;;;27.10;38.60;;;;;;5013617;28;20231;-41
2022/12/10 08:31:42;;;;;;;3.40;0.90;;;27.10;38.70;;;;;;5013473;28;20209;-38
2022/12/10 08:34:16;;;;;;;1.73;0.80;;;27.10;39.40;;;;;;5013675;28;20201;-38
2022/12/10 08:36:49;;;;;;;1.88;0.70;;;27.10;38.90;;;;;;5013091;28;20352;-39
2022/12/10 08:39:20;;;;;;;1.70;0.80;;;27.00;38.90;;;;;;5012810;28;20232;-38
2022/12/10 08:41:50;;;;;;;2.05;0.80;;;27.00;38.90;;;;;;5012768;28;20683;-38
2022/12/10 08:44:21;;;;;;;2.78;1.05;;;27.00;38.90;;;;;;5013169;28;20249;-38
2022/12/10 08:46:52;;;;;;;1.98;0.80;;;27.00;38.90;;;;;;5013068;28;20217;-38
2022/12/10 08:49:23;;;;;;;1.95;0.98;;;27.00;38.90;;;;;;5013148;28;20211;-39
2022/12/10 08:51:57;;;;;;;1.80;0.77;;;26.90;38.90;;;;;;5013227;28;20197;-38
2022/12/10 08:54:28;;;;;;;2.95;0.88;;;26.90;38.80;;;;;;5013556;28;20203;-38
2022/12/10 08:56:58;;;;;;;1.27;0.85;;;26.90;38.80;;;;;;5013140;28;20203;-38
2022/12/10 08:59:29;;;;;;;2.13;0.77;;;26.80;38.80;;;;;;5013200;28;20587;-40
2022/12/10 09:02:00;;;;;;;2.15;0.85;;;26.80;38.80;;;;;;5011068;28;20579;-39
2022/12/10 09:04:31;;;;;;;2.45;0.70;;;26.80;38.80;;;;;;5012849;28;20212;-39
2022/12/10 09:07:03;;;;;;;1.80;0.82;;;26.70;38.80;;;;;;5006861;28;20204;-38
2022/12/10 09:09:34;;;;;;;1.77;0.88;;;26.60;38.80;;;;;;5011623;28;20200;-38
2022/12/10 09:12:05;;;;;;;3.72;1.00;;;26.60;38.90;;;;;;5008200;28;20197;-38
2022/12/10 09:14:38;;;;;;;2.33;0.90;;;26.60;38.90;;;;;;5010365;28;20193;-41
2022/12/10 09:17:09;;;;;;;2.00;1.00;;;26.50;38.80;;;;;;5012230;28;20236;-38
2022/12/10 09:19:39;;;;;;;3.08;1.10;;;26.50;38.70;;;;;;5011718;28;20221;-40
2022/12/10 09:22:12;;;;;;;1.35;0.80;;;26.50;38.80;;;;;;5011461;28;20196;-39
2022/12/10 09:24:43;;;;;;;2.58;1.10;;;26.50;38.80;;;;;;5010512;28;20216;-39
2022/12/10 09:27:13;;;;;;;3.17;0.98;;;26.50;38.80;;;;;;5011042;28;20212;-38
2022/12/10 09:29:44;;;;;;;1.75;1.00;;;26.40;38.80;;;;;;5011560;28;20193;-39
2022/12/10 09:32:15;;;;;;;2.30;1.00;;;26.40;38.90;;;;;;5010401;28;20196;-38
2022/12/10 09:34:46;;;;;;;3.78;1.10;;;26.30;38.90;;;;;;5011067;28;20193;-39
2022/12/10 09:37:19;;;;;;;2.95;1.00;;;26.30;39.00;;;;;;5012074;28;20196;-38
2022/12/10 09:39:50;;;;;;;2.33;0.75;;;26.30;39.10;;;;;;5011377;28;20652;-39
2022/12/10 09:42:35;;;;;;;3.00;1.27;;;26.20;39.00;;;;;;5011800;28;20567;-38
2022/12/10 09:45:11;;;;;;;2.60;0.68;;;26.20;39.10;;;;;;5009948;28;20228;-39
2022/12/10 09:47:51;;;;;;;2.30;0.90;;;26.20;39.30;;;;;;5010906;28;20200;-38
2022/12/10 09:50:29;;;;;;;2.03;0.80;;;26.20;39.30;;;;;;5011840;28;20553;-38
2022/12/10 09:53:03;;;;;;;1.73;0.80;;;26.10;39.30;;;;;;5008749;28;20193;-38
2022/12/10 09:55:38;;;;;;;1.10;0.75;;;26.10;39.40;;;;;;5014057;28;20204;-39
2022/12/10 09:58:12;;;;;;;2.55;1.05;;;26.10;39.50;;;;;;5010340;28;20711;-38
2022/12/10 10:00:47;;;;;;;2.70;0.85;;;26.00;39.50;;;;;;5010711;28;20565;-38
2022/12/10 10:03:19;;;;;;;1.85;1.02;;;26.00;39.50;;;;;;5025413;28;20203;-38
2022/12/10 10:05:52;;;;;;;2.13;1.00;;;26.00;39.50;;;;;;5015071;28;20216;-39
2022/12/10 10:08:31;;;;;;;1.02;0.63;;;25.90;39.50;;;;;;5010476;28;20208;-38
2022/12/10 10:11:03;;;;;;;1.75;0.90;;;25.90;39.40;;;;;;5010296;28;20553;-40
2022/12/10 10:13:39;;;;;;;2.17;1.08;;;25.90;39.50;;;;;;5010574;28;20207;-38
2022/12/10 10:16:24;;;;;;;1.77;1.02;;;25.80;39.40;;;;;;5010565;28;20587;-38
2022/12/10 10:19:01;;;;;;;1.75;0.70;;;25.80;39.50;;;;;;5010199;28;20220;-39
2022/12/10 10:21:35;;;;;;;2.35;0.70;;;25.80;39.60;;;;;;5009898;28;20200;-39
2022/12/10 10:24:10;;;;;;;1.40;0.80;;;25.70;39.70;;;;;;5011481;28;20196;-38
2022/12/10 10:26:41;;;;;;;1.48;0.80;;;25.70;39.80;;;;;;4991040;28;20733;-38
2022/12/10 10:29:15;;;;;;;2.90;1.02;;;25.60;39.90;;;;;;4991261;28;20256;-41
2022/12/10 10:31:46;;;;;;;1.45;0.77;;;25.60;40.00;;;;;;5010180;28;20212;-38
2022/12/10 10:34:20;;;;;;;1.90;1.00;;;25.60;40.00;;;;;;5010582;28;20211;-40
2022/12/10 10:36:58;;;;;;;2.88;1.13;;;25.50;40.00;;;;;;5009959;28;20424;-38
2022/12/10 10:39:34;;;;;;;2.30;0.90;;;25.50;40.00;;;;;;5009747;28;20625;-38
2022/12/10 10:42:14;;;;;;;1.95;0.93;;;25.50;40.10;;;;;;5009998;28;20196;-38
2022/12/10 10:44:46;;;;;;;2.72;1.10;;;25.40;40.20;;;;;;5011167;28;20189;-38
2022/12/10 10:47:30;;;;;;;1.85;0.90;;;25.40;40.40;;;;;;5010749;28;20200;-38
2022/12/10 10:50:02;;;;;;;1.42;0.90;;;25.30;40.40;;;;;;5010371;28;20250;-39
2022/12/10 10:52:40;;;;;;;2.95;1.10;;;25.30;40.50;;;;;;5009971;28;20254;-39
2022/12/10 10:55:36;;;;;;;1.65;1.00;;;25.30;40.50;;;;;;5010111;28;20783;-38
2022/12/10 10:58:06;;;;;;;1.40;0.75;;;25.30;40.60;;;;;;4992023;28;20197;-39
2022/12/10 11:00:37;;;;;;;3.40;1.10;;;25.20;40.60;;;;;;5010376;28;20743;-39
2022/12/10 11:03:11;;;;;;;1.95;0.88;;;25.20;40.70;;;;;;5009720;28;20196;-47
2022/12/10 11:05:43;;;;;;;2.08;0.77;;;25.20;40.70;;;;;;5009680;28;20225;-39
2022/12/10 11:08:20;;;;;;;2.75;1.13;;;25.10;40.80;;;;;;5010845;28;20227;-38
2022/12/10 11:10:54;;;;;;;2.67;1.00;;;25.10;40.80;;;;;;5009352;28;20204;-38
2022/12/10 11:13:29;;;;;;;1.55;0.70;;;25.00;40.70;;;;;;5010138;28;20197;-40
2022/12/10 11:16:04;;;;;;;1.88;0.90;;;25.10;40.90;;;;;;5010297;28;20212;-38
2022/12/10 11:18:37;;;;;;;2.38;1.05;;;25.00;40.80;;;;;;5010746;28;20671;-44
2022/12/10 11:21:19;;;;;;;2.15;0.95;;;25.00;40.90;;;;;;5010919;28;20703;-38
2022/12/10 11:23:51;;;;;;;1.58;0.80;;;24.90;40.90;;;;;;5010779;28;20196;-39
2022/12/10 11:27:03;;;;;;;1.65;0.90;;;24.90;40.90;;;;;;5010514;28;20228;-38
2022/12/10 11:29:51;;;;;;;1.52;0.70;;;24.90;41.00;;;;;;5010114;28;20653;-38
2022/12/10 11:32:37;;;;;;;1.05;0.75;;;24.80;41.00;;;;;;5007447;28;20216;-40
2022/12/10 11:35:17;;;;;;;2.50;0.80;;;24.70;41.10;;;;;;5008272;28;20224;-38
2022/12/10 11:37:57;;;;;;;1.88;0.90;;;24.70;41.10;;;;;;5008245;28;20236;-38
2022/12/10 11:40:45;;;;;;;1.85;0.80;;;24.70;41.10;;;;;;5007840;28;20201;-38
2022/12/10 11:43:46;;;;;;;2.75;0.85;;;24.60;41.20;;;;;;5008676;28;20192;-39
2022/12/10 11:46:34;;;;;;;1.45;0.90;;;24.60;41.20;;;;;;5008974;28;20212;-43
2022/12/10 11:49:20;;;;;;;3.20;0.88;;;24.60;41.20;;;;;;5007568;28;20193;-40
2022/12/10 11:52:00;;;;;;;2.38;0.95;;;24.50;41.20;;;;;;5009660;28;20197;-39
2022/12/10 11:54:45;;;;;;;1.05;0.75;;;24.50;41.20;;;;;;5011513;28;20208;-40
2022/12/10 11:57:24;;;;;;;1.25;0.65;;;24.50;41.30;;;;;;5016610;28;20205;-39
2022/12/10 12:00:02;;;;;;;2.22;0.90;;;24.40;41.20;;;;;;5014106;28;20238;-39
2022/12/10 12:02:54;;;;;;;2.25;0.90;;;24.40;41.30;;;;;;5014354;28;20201;-41
2022/12/10 12:05:46;;;;;;;1.13;0.60;;;24.40;41.30;;;;;;5013990;28;20248;-40
2022/12/10 12:08:21;;;;;;;1.70;0.70;;;24.30;41.30;;;;;;5014422;28;20204;-38
2022/12/10 12:11:11;;;;;;;1.77;0.88;;;24.30;41.40;;;;;;5013884;28;20200;-38
2022/12/10 12:13:51;;;;;;;2.05;1.00;;;24.30;41.50;;;;;;5013279;28;20291;-39
2022/12/10 12:16:31;;;;;;;1.05;0.60;;;24.20;41.50;;;;;;5013542;28;20231;-40
2022/12/10 12:19:05;;;;;;;1.48;0.57;;;24.20;41.50;;;;;;5013537;28;20227;-38
2022/12/10 12:21:37;;;;;;;0.85;0.68;;;24.20;41.60;;;;;;5013799;28;20726;-41
2022/12/10 12:24:15;;;;;;;1.38;0.80;;;24.10;41.50;;;;;;5013706;28;20239;-39
2022/12/10 12:26:51;;;;;;;1.67;0.80;;;24.10;41.60;;;;;;5013908;28;20232;-46
2022/12/10 12:29:26;;;;;;;1.45;0.70;;;24.10;41.70;;;;;;5013760;28;20211;-39
2022/12/10 12:32:03;;;;;;;2.70;0.80;;;24.00;41.70;;;;;;5013556;28;20573;-38
2022/12/10 12:34:47;;;;;;;1.58;0.85;;;24.00;41.70;;;;;;5013171;28;20200;-38
2022/12/10 12:37:22;;;;;;;1.30;0.63;;;24.00;41.70;;;;;;5013432;28;20193;-39
2022/12/10 12:40:01;;;;;;;1.60;0.85;;;24.00;41.70;;;;;;5013740;28;20227;-39
2022/12/10 12:42:39;;;;;;;1.30;0.73;;;24.00;41.70;;;;;;5013499;28;20251;-38
2022/12/10 12:45:16;;;;;;;2.00;0.80;;;23.90;41.70;;;;;;5013652;28;20688;-38
2022/12/10 12:47:57;;;;;;;1.55;0.80;;;23.90;41.80;;;;;;5013002;28;20199;-43
2022/12/10 12:50:32;;;;;;;1.13;0.68;;;23.80;41.90;;;;;;5013050;28;20243;-38
2022/12/10 12:53:05;;;;;;;2.05;0.90;;;23.80;41.80;;;;;;5013220;28;20647;-39
2022/12/10 12:55:41;;;;;;;1.42;0.80;;;23.80;41.90;;;;;;5015378;28;20235;-38
2022/12/10 12:58:41;;;;;;;1.65;0.73;;;23.70;41.90;;;;;;5013034;28;20287;-38
2022/12/10 13:01:26;;;;;;;1.17;0.55;;;23.70;41.90;;;;;;5012910;28;20598;-39
2022/12/10 13:04:00;;;;;;;0.95;0.80;;;23.70;41.90;;;;;;5012377;28;20641;-38
2022/12/10 13:06:32;;;;;;;1.33;0.80;;;23.70;42.00;;;;;;5012379;28;20598;-38
2022/12/10 13:09:27;;;;;;;1.23;0.63;;;23.70;42.00;;;;;;5012475;28;20196;-38
2022/12/10 13:12:31;;;;;;;3.20;1.10;;;23.60;42.00;;;;;;5012504;28;20700;-38
2022/12/10 13:15:18;;;;;;;1.15;0.70;;;23.60;42.00;;;;;;4970428;28;20218;-38
2022/12/10 13:18:08;;;;;;;1.25;0.70;;;23.60;41.90;;;;;;4970914;28;20194;-39
2022/12/10 13:20:49;;;;;;;2.15;1.00;;;23.50;41.90;;;;;;5002380;28;20220;-38
2022/12/10 13:23:35;;;;;;;0.93;0.60;;;23.50;41.90;;;;;;5012300;28;20197;-38
2022/12/10 13:26:07;;;;;;;1.67;0.70;;;23.50;42.00;;;;;;5011983;28;20243;-39
2022/12/10 13:28:52;;;;;;;1.63;0.57;;;23.50;42.10;;;;;;5012845;28;20204;-38
2022/12/10 13:31:38;;;;;;;1.48;0.75;;;23.40;42.10;;;;;;5012156;28;20207;-38
2022/12/10 13:34:26;;;;;;;1.05;0.63;;;23.40;42.10;;;;;;5011737;28;20204;-38
2022/12/10 13:37:36;;;;;;;1.23;0.65;;;23.40;42.10;;;;;;5011150;28;20216;-40
2022/12/10 13:40:25;;;;;;;1.10;0.57;;;23.40;42.20;;;;;;4992567;28;20323;-38